Time;durP1;ratioP1;P1;durP2;ratioP2;P2;SDS_P1;SDS_P2;PMS_P1;PMS_P2;Temp;Humidity;BMP_temperature;BMP_pressure;BME280_temperature;BME280_humidity;BME280_pressure;Samples;Min_cycle;Max_cycle;Signal;HPM_P1;HPM_P2
2021/08/02 00:01:34;;;;;;;;;;;24.10;73.50;;;;;;5173423;28;19936;-56
2021/08/02 00:04:11;;;;;;;;;;;24.10;73.60;;;;;;5178003;28;19932;-59
2021/08/02 00:06:50;;;;;;;;;;;24.10;73.50;;;;;;5190708;28;20424;-57
2021/08/02 00:09:24;;;;;;;;;;;24.10;74.20;;;;;;5174324;28;19933;-59
2021/08/02 00:12:00;;;;;;;;;;;24.10;73.50;;;;;;5174098;28;19929;-60
2021/08/02 00:14:34;;;;;;;;;;;24.10;73.50;;;;;;5173686;28;19925;-57
2021/08/02 00:17:06;;;;;;;;;;;24.00;73.50;;;;;;5178867;28;20316;-60
2021/08/02 00:19:38;;;;;;;;;;;24.10;73.50;;;;;;5175471;28;19933;-59
2021/08/02 00:22:11;;;;;;;;;;;24.10;73.50;;;;;;5175430;28;19933;-61
2021/08/02 00:24:43;;;;;;;;;;;24.10;73.50;;;;;;5172515;28;19933;-61
2021/08/02 00:27:18;;;;;;;;;;;24.10;73.50;;;;;;5174702;28;20939;-60
2021/08/02 00:29:50;;;;;;;;;;;24.10;73.60;;;;;;5190862;28;19940;-59
2021/08/02 00:32:22;;;;;;;;;;;24.10;73.50;;;;;;5193327;28;19933;-57
2021/08/02 00:34:55;;;;;;;;;;;24.00;73.50;;;;;;5187744;28;19936;-59
2021/08/02 00:37:40;;;;;;;;;;;24.10;73.50;;;;;;5174237;28;19929;-59
2021/08/02 00:40:31;;;;;;;;;;;24.00;73.50;;;;;;5172419;28;20388;-59
2021/08/02 00:43:22;;;;;;;;;;;24.10;73.50;;;;;;5172491;28;19956;-59
2021/08/02 00:45:55;;;;;;;;;;;24.00;73.40;;;;;;5192094;28;19929;-58
2021/08/02 00:48:29;;;;;;;;;;;24.00;73.40;;;;;;5171605;28;20305;-58
2021/08/02 00:51:02;;;;;;;;;;;24.00;73.50;;;;;;5186103;28;19949;-60
2021/08/02 00:53:36;;;;;;;;;;;24.10;73.50;;;;;;5171842;28;19934;-59
2021/08/02 00:56:08;;;;;;;;;;;24.10;73.50;;;;;;5172476;28;19940;-60
2021/08/02 00:58:45;;;;;;;;;;;24.00;73.40;;;;;;5171668;28;19933;-56
2021/08/02 01:01:19;;;;;;;;;;;24.00;73.40;;;;;;5188681;28;19933;-59
2021/08/02 01:04:03;;;;;;;;;;;24.00;73.40;;;;;;5185337;28;19936;-60
2021/08/02 01:06:36;;;;;;;;;;;24.00;73.40;;;;;;5171796;28;19956;-55
2021/08/02 01:09:16;;;;;;;;;;;24.10;73.50;;;;;;5188137;28;21109;-58
2021/08/02 01:11:51;;;;;;;;;;;24.00;73.50;;;;;;5171419;28;19952;-57
2021/08/02 01:14:25;;;;;;;;;;;24.10;73.50;;;;;;5172763;28;19937;-58
2021/08/02 01:16:57;;;;;;;;;;;24.00;73.40;;;;;;5171625;28;19936;-56
2021/08/02 01:19:33;;;;;;;;;;;24.00;73.40;;;;;;5172680;28;20785;-58
2021/08/02 01:22:12;;;;;;;;;;;24.00;73.40;;;;;;5170746;28;19933;-59
2021/08/02 01:24:45;;;;;;;;;;;24.00;73.40;;;;;;5168643;28;19929;-60
2021/08/02 01:27:36;;;;;;;;;;;24.00;73.40;;;;;;5175768;28;19932;-59
2021/08/02 01:30:11;;;;;;;;;;;24.00;73.40;;;;;;5177536;28;19932;-57
2021/08/02 01:32:47;;;;;;;;;;;24.00;73.40;;;;;;5169775;28;19944;-58
2021/08/02 01:35:20;;;;;;;;;;;24.00;73.40;;;;;;5170054;28;19950;-57
2021/08/02 01:37:53;;;;;;;;;;;24.00;73.40;;;;;;5170646;28;19936;-58
2021/08/02 01:40:30;;;;;;;;;;;24.00;73.40;;;;;;5170757;28;19933;-57
2021/08/02 01:43:04;;;;;;;;;;;24.00;73.40;;;;;;5189764;28;19933;-57
2021/08/02 01:45:48;;;;;;;;;;;24.00;73.40;;;;;;5156462;28;19933;-60
2021/08/02 01:48:25;;;;;;;;;;;24.00;73.40;;;;;;5172354;28;19932;-59
2021/08/02 01:51:00;;;;;;;;;;;24.00;73.30;;;;;;5169844;28;19936;-57
2021/08/02 01:53:36;;;;;;;;;;;24.00;73.40;;;;;;5169673;28;19940;-57
2021/08/02 01:56:18;;;;;;;;;;;24.00;73.40;;;;;;5177961;28;19940;-60
2021/08/02 01:58:53;;;;;;;;;;;24.00;73.40;;;;;;5159447;28;20996;-59
2021/08/02 02:01:41;;;;;;;;;;;24.00;73.40;;;;;;5162531;28;19933;-59
2021/08/02 02:04:16;;;;;;;;;;;24.00;73.40;;;;;;5169892;28;19936;-56
2021/08/02 02:06:52;;;;;;;;;;;24.00;73.40;;;;;;5182373;28;20309;-60
2021/08/02 02:09:38;;;;;;;;;;;24.00;73.40;;;;;;5172318;28;19932;-58
2021/08/02 02:12:14;;;;;;;;;;;24.00;73.40;;;;;;5184180;28;21565;-56
2021/08/02 02:14:49;;;;;;;;;;;24.00;73.30;;;;;;5172098;28;20344;-57
2021/08/02 02:17:26;;;;;;;;;;;24.00;73.30;;;;;;5169807;28;19933;-60
2021/08/02 02:19:59;;;;;;;;;;;24.00;73.30;;;;;;5168044;28;19933;-55
2021/08/02 02:22:31;;;;;;;;;;;24.00;73.30;;;;;;5173714;28;19936;-59
2021/08/02 02:25:06;;;;;;;;;;;24.00;73.30;;;;;;5175434;28;19932;-55
2021/08/02 02:27:39;;;;;;;;;;;24.00;73.30;;;;;;5166696;28;19933;-59
2021/08/02 02:30:15;;;;;;;;;;;24.00;73.90;;;;;;5172809;28;19933;-60
2021/08/02 02:32:47;;;;;;;;;;;24.00;73.30;;;;;;5167237;28;19929;-56
2021/08/02 02:35:23;;;;;;;;;;;24.00;73.30;;;;;;5170382;28;19925;-59
2021/08/02 02:37:57;;;;;;;;;;;24.00;73.30;;;;;;5183988;28;19929;-59
2021/08/02 02:40:29;;;;;;;;;;;24.00;73.30;;;;;;5173077;28;19935;-59
2021/08/02 02:43:02;;;;;;;;;;;24.00;73.30;;;;;;5166323;28;19936;-56
2021/08/02 02:45:37;;;;;;;;;;;24.00;73.30;;;;;;5157249;28;19929;-61
2021/08/02 02:48:12;;;;;;;;;;;24.00;73.30;;;;;;5165116;28;19933;-57
2021/08/02 02:50:46;;;;;;;;;;;24.00;73.30;;;;;;5169573;28;19936;-59
2021/08/02 02:53:19;;;;;;;;;;;24.00;73.30;;;;;;5179481;28;19933;-58
2021/08/02 02:55:53;;;;;;;;;;;24.00;73.30;;;;;;5168693;28;20312;-56
2021/08/02 02:58:26;;;;;;;;;;;24.00;73.30;;;;;;5182860;28;19936;-59
2021/08/02 03:00:59;;;;;;;;;;;23.90;73.20;;;;;;5168656;28;20406;-60
2021/08/02 03:03:32;;;;;;;;;;;24.00;73.40;;;;;;5168800;28;20010;-58
2021/08/02 03:06:07;;;;;;;;;;;24.00;73.30;;;;;;5170214;28;19933;-60
2021/08/02 03:08:40;;;;;;;;;;;24.00;73.30;;;;;;5170227;28;19934;-58
2021/08/02 03:11:15;;;;;;;;;;;24.00;73.30;;;;;;5170109;28;22566;-58
2021/08/02 03:13:50;;;;;;;;;;;24.00;73.20;;;;;;5165768;28;19936;-59
2021/08/02 03:16:24;;;;;;;;;;;24.00;73.30;;;;;;5161919;28;19933;-56
2021/08/02 03:18:56;;;;;;;;;;;24.00;73.20;;;;;;5180950;28;19936;-59
2021/08/02 03:21:29;;;;;;;;;;;24.00;73.30;;;;;;5163333;28;19932;-59
2021/08/02 03:24:11;;;;;;;;;;;24.00;73.30;;;;;;5163544;28;19933;-59
2021/08/02 03:26:55;;;;;;;;;;;24.00;73.20;;;;;;5158720;28;20467;-57
2021/08/02 03:29:30;;;;;;;;;;;23.90;73.20;;;;;;5160378;28;20012;-59
2021/08/02 03:32:04;;;;;;;;;;;24.00;73.20;;;;;;5159031;28;19940;-58
2021/08/02 03:34:36;;;;;;;;;;;23.90;73.20;;;;;;5162131;28;20549;-59
2021/08/02 03:37:10;;;;;;;;;;;24.00;73.30;;;;;;5161148;28;19940;-59
2021/08/02 03:39:44;;;;;;;;;;;23.90;73.20;;;;;;5163292;28;19925;-57
2021/08/02 03:42:17;;;;;;;;;;;23.90;73.20;;;;;;5168205;28;19958;-57
2021/08/02 03:44:49;;;;;;;;;;;24.00;73.20;;;;;;5167948;28;19929;-59
2021/08/02 03:47:22;;;;;;;;;;;23.90;73.20;;;;;;5175660;28;19929;-59
2021/08/02 03:49:55;;;;;;;;;;;23.90;73.20;;;;;;5177340;28;19936;-58
2021/08/02 03:52:27;;;;;;;;;;;23.90;73.20;;;;;;5176786;28;19933;-59
2021/08/02 03:55:00;;;;;;;;;;;23.90;73.20;;;;;;5175603;28;19929;-60
2021/08/02 03:57:33;;;;;;;;;;;23.90;73.10;;;;;;5175942;28;19925;-59
2021/08/02 04:00:05;;;;;;;;;;;23.90;73.20;;;;;;5174983;28;19925;-59
2021/08/02 04:02:44;;;;;;;;;;;23.90;73.20;;;;;;5171665;28;19945;-57
2021/08/02 04:05:18;;;;;;;;;;;23.90;73.20;;;;;;5175409;28;19944;-59
2021/08/02 04:07:50;;;;;;;;;;;23.90;73.20;;;;;;5173882;28;19929;-60
2021/08/02 04:10:27;;;;;;;;;;;23.90;73.20;;;;;;4493763;28;10000822;-61
2021/08/02 04:13:00;;;;;;;;;;;23.90;73.10;;;;;;5176396;28;20397;-57
2021/08/02 04:15:32;;;;;;;;;;;23.90;73.00;;;;;;5175249;28;20456;-59
2021/08/02 04:18:04;;;;;;;;;;;23.90;72.90;;;;;;5173881;28;19929;-60
2021/08/02 04:20:36;;;;;;;;;;;23.90;72.90;;;;;;5168959;28;19929;-59
2021/08/02 04:23:09;;;;;;;;;;;23.90;72.90;;;;;;5187113;28;19940;-59
2021/08/02 04:25:41;;;;;;;;;;;23.90;72.90;;;;;;5175997;28;19940;-60
2021/08/02 04:28:14;;;;;;;;;;;23.90;72.90;;;;;;5175862;28;19937;-58
2021/08/02 04:30:46;;;;;;;;;;;23.90;72.80;;;;;;5178252;28;19929;-60
2021/08/02 04:33:18;;;;;;;;;;;23.90;72.70;;;;;;5178830;28;20350;-60
2021/08/02 04:35:51;;;;;;;;;;;23.90;72.70;;;;;;5181744;28;19932;-60
2021/08/02 04:38:23;;;;;;;;;;;23.90;72.70;;;;;;5173978;28;19940;-60
2021/08/02 04:40:55;;;;;;;;;;;23.90;72.70;;;;;;5163217;28;19933;-60
2021/08/02 04:43:27;;;;;;;;;;;23.90;72.70;;;;;;5165170;28;19929;-60
2021/08/02 04:46:00;;;;;;;;;;;23.90;72.70;;;;;;5164518;28;19925;-60
2021/08/02 04:48:32;;;;;;;;;;;23.90;72.80;;;;;;5160769;28;21086;-59
2021/08/02 04:51:04;;;;;;;;;;;23.90;72.70;;;;;;5162382;28;19933;-60
2021/08/02 04:53:37;;;;;;;;;;;23.90;72.70;;;;;;5157950;28;19936;-58
2021/08/02 04:56:09;;;;;;;;;;;23.90;72.70;;;;;;5169125;28;19937;-59
2021/08/02 04:58:41;;;;;;;;;;;23.90;72.70;;;;;;5163369;28;20436;-58
2021/08/02 05:01:13;;;;;;;;;;;23.90;72.70;;;;;;5172515;28;19929;-60
2021/08/02 05:03:46;;;;;;;;;;;23.90;72.70;;;;;;5160520;28;19929;-60
2021/08/02 05:06:18;;;;;;;;;;;23.90;72.70;;;;;;5159310;28;19933;-60
2021/08/02 05:08:50;;;;;;;;;;;23.90;72.70;;;;;;5158333;28;20853;-60
2021/08/02 05:11:23;;;;;;;;;;;23.90;72.60;;;;;;5172780;28;20306;-57
2021/08/02 05:13:55;;;;;;;;;;;23.90;72.70;;;;;;5166975;28;20618;-57
2021/08/02 05:16:27;;;;;;;;;;;23.90;72.70;;;;;;5156834;28;21166;-60
2021/08/02 05:19:00;;;;;;;;;;;23.90;72.70;;;;;;5164326;28;19933;-60
2021/08/02 05:21:32;;;;;;;;;;;23.90;72.60;;;;;;5156893;28;20622;-61
2021/08/02 05:24:04;;;;;;;;;;;23.90;72.60;;;;;;5162776;28;19930;-60
2021/08/02 05:26:40;;;;;;;;;;;23.90;72.60;;;;;;5163603;28;19934;-60
2021/08/02 05:29:12;;;;;;;;;;;23.90;72.60;;;;;;5158829;28;20296;-59
2021/08/02 05:31:44;;;;;;;;;;;23.80;72.60;;;;;;5162158;28;19933;-60
2021/08/02 05:34:16;;;;;;;;;;;23.90;72.70;;;;;;5163378;28;20688;-60
2021/08/02 05:36:49;;;;;;;;;;;23.90;72.70;;;;;;5162500;28;19933;-60
2021/08/02 05:39:21;;;;;;;;;;;23.90;72.60;;;;;;5171244;28;19941;-60
2021/08/02 05:41:53;;;;;;;;;;;23.90;72.60;;;;;;5168787;28;19940;-58
2021/08/02 05:44:25;;;;;;;;;;;23.90;72.60;;;;;;5164312;28;20393;-60
2021/08/02 05:46:58;;;;;;;;;;;23.90;72.60;;;;;;5166476;28;20301;-60
2021/08/02 05:49:30;;;;;;;;;;;23.90;72.60;;;;;;5156544;28;19933;-59
2021/08/02 05:52:02;;;;;;;;;;;23.90;72.60;;;;;;5170828;28;20516;-57
2021/08/02 05:54:34;;;;;;;;;;;23.90;72.60;;;;;;5169480;28;20317;-60
2021/08/02 05:57:06;;;;;;;;;;;23.90;72.60;;;;;;5168433;28;19937;-60
2021/08/02 05:59:39;;;;;;;;;;;23.90;72.60;;;;;;5163313;28;19933;-59
2021/08/02 06:02:11;;;;;;;;;;;23.90;72.50;;;;;;5159722;28;19960;-60
2021/08/02 06:04:43;;;;;;;;;;;23.90;72.20;;;;;;5160803;28;20317;-59
2021/08/02 06:07:15;;;;;;;;;;;23.90;72.50;;;;;;5160957;28;19944;-60
2021/08/02 06:09:49;;;;;;;;;;;23.90;72.50;;;;;;5162877;28;19929;-61
2021/08/02 06:12:22;;;;;;;;;;;23.90;72.50;;;;;;5162306;28;19933;-62
2021/08/02 06:14:54;;;;;;;;;;;23.90;72.50;;;;;;5163334;28;19928;-62
2021/08/02 06:17:26;;;;;;;;;;;23.90;72.60;;;;;;5156961;28;20507;-60
2021/08/02 06:19:58;;;;;;;;;;;23.90;72.50;;;;;;5174996;28;19929;-58
2021/08/02 06:22:30;;;;;;;;;;;23.90;72.50;;;;;;5156151;28;19929;-60
2021/08/02 06:25:03;;;;;;;;;;;23.90;72.50;;;;;;5160199;28;19929;-62
2021/08/02 06:27:36;;;;;;;;;;;23.90;72.50;;;;;;5163443;28;19936;-60
2021/08/02 06:30:09;;;;;;;;;;;23.90;72.50;;;;;;5162488;28;20943;-60
2021/08/02 06:32:41;;;;;;;;;;;23.90;72.50;;;;;;5164101;28;19937;-61
2021/08/02 06:35:15;;;;;;;;;;;23.90;72.50;;;;;;5167138;28;19935;-60
2021/08/02 06:37:48;;;;;;;;;;;23.90;72.50;;;;;;5170878;28;20419;-63
2021/08/02 06:40:20;;;;;;;;;;;23.90;72.50;;;;;;5162927;28;20395;-63
2021/08/02 06:42:55;;;;;;;;;;;23.90;72.60;;;;;;5163504;28;20392;-61
2021/08/02 06:45:27;;;;;;;;;;;23.90;72.50;;;;;;5165335;28;19944;-61
2021/08/02 06:47:59;;;;;;;;;;;23.90;72.50;;;;;;5169167;28;19933;-60
2021/08/02 06:50:31;;;;;;;;;;;24.00;72.70;;;;;;5163097;28;20468;-60
2021/08/02 06:53:03;;;;;;;;;;;23.90;72.40;;;;;;5160587;28;20520;-62
2021/08/02 06:55:36;;;;;;;;;;;23.90;72.50;;;;;;5165096;28;19929;-62
2021/08/02 06:58:08;;;;;;;;;;;23.90;72.40;;;;;;5163652;28;19933;-61
2021/08/02 07:00:40;;;;;;;;;;;23.90;72.30;;;;;;5166185;28;20844;-61
2021/08/02 07:03:12;;;;;;;;;;;24.00;72.30;;;;;;5163371;28;19933;-61
2021/08/02 07:05:45;;;;;;;;;;;24.00;72.20;;;;;;5162969;28;19940;-61
2021/08/02 07:08:19;;;;;;;;;;;24.00;72.20;;;;;;5157392;28;19936;-60
2021/08/02 07:10:51;;;;;;;;;;;24.00;72.20;;;;;;5162028;28;19933;-61
2021/08/02 07:13:23;;;;;;;;;;;24.00;72.20;;;;;;5171276;28;20748;-62
2021/08/02 07:15:55;;;;;;;;;;;24.00;72.20;;;;;;5177411;28;19929;-58
2021/08/02 07:18:31;;;;;;;;;;;24.00;72.20;;;;;;5175992;28;20306;-61
2021/08/02 07:21:03;;;;;;;;;;;23.90;72.10;;;;;;5177736;28;20336;-60
2021/08/02 07:23:37;;;;;;;;;;;24.00;72.20;;;;;;5182866;28;19956;-60
2021/08/02 07:26:09;;;;;;;;;;;24.00;72.20;;;;;;5179469;28;19926;-60
2021/08/02 07:28:43;;;;;;;;;;;23.90;72.00;;;;;;5181508;28;19933;-59
2021/08/02 07:31:15;;;;;;;;;;;23.90;71.90;;;;;;5176410;28;19940;-61
2021/08/02 07:33:47;;;;;;;;;;;24.00;71.90;;;;;;5176946;28;19940;-62
2021/08/02 07:36:20;;;;;;;;;;;24.00;71.90;;;;;;5183893;28;19933;-61
2021/08/02 07:38:52;;;;;;;;;;;24.00;71.90;;;;;;5182932;28;19926;-61
2021/08/02 07:41:26;;;;;;;;;;;24.00;71.90;;;;;;5181098;28;20282;-60
2021/08/02 07:44:00;;;;;;;;;;;24.00;71.90;;;;;;5179279;28;20428;-63
2021/08/02 07:46:32;;;;;;;;;;;24.00;71.90;;;;;;5182014;28;19936;-60
2021/08/02 07:49:05;;;;;;;;;;;24.00;71.90;;;;;;5181104;28;19930;-63
2021/08/02 07:51:37;;;;;;;;;;;24.00;71.90;;;;;;5182552;28;19941;-60
2021/08/02 07:54:10;;;;;;;;;;;24.00;71.90;;;;;;5182264;28;20446;-60
2021/08/02 07:56:43;;;;;;;;;;;24.00;71.90;;;;;;5171444;28;19952;-59
2021/08/02 07:59:15;;;;;;;;;;;24.00;71.90;;;;;;5176032;28;19929;-62
2021/08/02 08:01:47;;;;;;;;;;;24.00;71.90;;;;;;5196003;28;19933;-59
2021/08/02 08:04:20;;;;;;;;;;;24.00;71.90;;;;;;5182125;28;20401;-62
2021/08/02 08:06:52;;;;;;;;;;;24.00;71.80;;;;;;5180660;28;19933;-63
2021/08/02 08:09:24;;;;;;;;;;;24.00;71.70;;;;;;5178678;28;20393;-62
2021/08/02 08:11:57;;;;;;;;;;;24.00;71.60;;;;;;5185274;28;19933;-59
2021/08/02 08:14:29;;;;;;;;;;;24.00;71.60;;;;;;5174631;28;19929;-59
2021/08/02 08:17:01;;;;;;;;;;;24.00;71.50;;;;;;5172391;28;19925;-60
2021/08/02 08:19:34;;;;;;;;;;;24.00;71.60;;;;;;5166082;28;19936;-60
2021/08/02 08:22:06;;;;;;;;;;;24.00;71.50;;;;;;5168114;28;19929;-61
2021/08/02 08:24:38;;;;;;;;;;;24.00;71.40;;;;;;5171620;28;20349;-60
2021/08/02 08:27:10;;;;;;;;;;;24.00;71.40;;;;;;5176641;28;19925;-59
2021/08/02 08:29:42;;;;;;;;;;;24.00;71.50;;;;;;5177971;28;19929;-60
2021/08/02 08:32:15;;;;;;;;;;;24.00;71.50;;;;;;5187819;28;19937;-61
2021/08/02 08:34:47;;;;;;;;;;;24.00;71.40;;;;;;5187775;28;19925;-60
2021/08/02 08:37:19;;;;;;;;;;;24.10;71.50;;;;;;5188074;28;19925;-61
2021/08/02 08:39:51;;;;;;;;;;;24.00;71.40;;;;;;5187384;28;19936;-59
2021/08/02 08:42:24;;;;;;;;;;;24.00;71.40;;;;;;5186165;28;20309;-61
2021/08/02 08:44:56;;;;;;;;;;;24.00;71.50;;;;;;5190000;28;19932;-59
2021/08/02 08:47:28;;;;;;;;;;;24.00;71.50;;;;;;5187104;28;19936;-61
2021/08/02 08:50:01;;;;;;;;;;;24.00;71.50;;;;;;5181267;28;19929;-61
2021/08/02 08:52:35;;;;;;;;;;;24.00;71.50;;;;;;5188208;28;19935;-63
2021/08/02 08:55:08;;;;;;;;;;;24.00;71.50;;;;;;5186442;28;19933;-60
2021/08/02 08:57:41;;;;;;;;;;;24.00;71.50;;;;;;5184724;28;19932;-62
2021/08/02 09:00:19;;;;;;;;;;;24.10;71.50;;;;;;5184818;28;19937;-60
2021/08/02 09:02:52;;;;;;;;;;;24.10;71.50;;;;;;5186617;28;20329;-61
2021/08/02 09:05:34;;;;;;;;;;;24.10;71.40;;;;;;5184494;28;20332;-61
2021/08/02 09:08:12;;;;;;;;;;;24.10;71.40;;;;;;5188568;28;19933;-59
2021/08/02 09:10:54;;;;;;;;;;;24.10;71.50;;;;;;5188514;28;19925;-60
2021/08/02 09:13:31;;;;;;;;;;;24.10;71.50;;;;;;4507983;28;10001054;-61
2021/08/02 09:16:13;;;;;;;;;;;24.10;71.50;;;;;;5199767;28;19925;-60
2021/08/02 09:18:56;;;;;;;;;;;24.10;71.50;;;;;;5187154;28;19948;-59
2021/08/02 09:21:45;;;;;;;;;;;24.10;71.50;;;;;;5208753;28;19929;-60
2021/08/02 09:24:28;;;;;;;;;;;24.10;71.40;;;;;;5205986;28;19929;-62
2021/08/02 09:27:00;;;;;;;;;;;24.10;71.50;;;;;;5190106;28;19929;-61
2021/08/02 09:29:34;;;;;;;;;;;24.10;71.40;;;;;;5204297;28;20389;-60
2021/08/02 09:32:07;;;;;;;;;;;24.10;71.40;;;;;;5205216;28;20636;-61
2021/08/02 09:34:48;;;;;;;;;;;24.10;71.40;;;;;;5188913;28;19931;-60
2021/08/02 09:37:22;;;;;;;;;;;24.10;71.50;;;;;;5188907;28;19933;-62
2021/08/02 09:40:03;;;;;;;;;;;24.10;71.40;;;;;;5200337;28;19933;-59
2021/08/02 09:42:37;;;;;;;;;;;24.10;71.40;;;;;;5202909;28;19943;-62
2021/08/02 09:45:38;;;;;;;;;;;24.10;71.40;;;;;;5193549;28;19929;-63
2021/08/02 09:48:13;;;;;;;;;;;24.10;71.40;;;;;;5185590;28;19933;-59
2021/08/02 09:50:47;;;;;;;;;;;24.10;71.50;;;;;;5184539;28;21535;-60
2021/08/02 09:53:20;;;;;;;;;;;24.10;71.40;;;;;;5184995;28;20499;-60
2021/08/02 09:55:52;;;;;;;;;;;24.10;71.40;;;;;;5185376;28;19925;-60
2021/08/02 09:58:24;;;;;;;;;;;24.10;71.40;;;;;;5183772;28;19948;-60
2021/08/02 10:00:56;;;;;;;;;;;24.10;71.40;;;;;;5182887;28;19926;-60
2021/08/02 10:03:29;;;;;;;;;;;24.10;71.40;;;;;;5183920;28;20317;-60
2021/08/02 10:06:02;;;;;;;;;;;24.10;71.40;;;;;;5187336;28;19932;-60
2021/08/02 10:08:36;;;;;;;;;;;24.10;72.00;;;;;;5197812;28;20699;-60
2021/08/02 10:11:09;;;;;;;;;;;24.20;71.40;;;;;;5177180;28;20001;-61
2021/08/02 10:13:42;;;;;;;;;;;24.10;71.40;;;;;;5175499;28;19929;-60
2021/08/02 10:16:16;;;;;;;;;;;24.10;71.40;;;;;;5173374;28;19929;-61
2021/08/02 10:18:49;;;;;;;;;;;24.10;71.40;;;;;;5179657;28;19936;-63
2021/08/02 10:21:21;;;;;;;;;;;24.20;71.40;;;;;;5180987;28;19952;-61
2021/08/02 10:24:03;;;;;;;;;;;24.10;71.40;;;;;;5181454;28;19975;-61
2021/08/02 10:26:36;;;;;;;;;;;24.20;71.40;;;;;;5183460;28;19929;-61
2021/08/02 10:29:08;;;;;;;;;;;24.10;71.40;;;;;;4850695;28;9999698;-63
2021/08/02 10:31:50;;;;;;;;;;;24.10;71.40;;;;;;5175115;28;19936;-61
2021/08/02 10:34:23;;;;;;;;;;;24.10;71.40;;;;;;5175339;28;19933;-62
2021/08/02 10:36:57;;;;;;;;;;;24.10;71.30;;;;;;5178766;28;19939;-62
2021/08/02 10:39:30;;;;;;;;;;;24.20;71.40;;;;;;5179131;28;20301;-58
2021/08/02 10:42:07;;;;;;;;;;;24.10;71.30;;;;;;5186464;28;19936;-62
2021/08/02 10:44:54;;;;;;;;;;;24.20;71.50;;;;;;5170483;28;19944;-60
2021/08/02 10:47:41;;;;;;;;;;;24.10;71.60;;;;;;5188531;28;19940;-60
2021/08/02 10:50:22;;;;;;;;;;;24.20;71.90;;;;;;5174489;28;19929;-61
2021/08/02 10:52:55;;;;;;;;;;;24.10;71.90;;;;;;5172362;28;20148;-59
2021/08/02 10:55:29;;;;;;;;;;;24.20;72.00;;;;;;5172245;28;19933;-63
2021/08/02 10:58:01;;;;;;;;;;;24.20;72.00;;;;;;5179803;28;19930;-63
2021/08/02 11:00:34;;;;;;;;;;;24.20;72.00;;;;;;5178511;28;20851;-61
2021/08/02 11:03:08;;;;;;;;;;;24.20;72.10;;;;;;5176441;28;19933;-60
2021/08/02 11:05:40;;;;;;;;;;;24.10;72.00;;;;;;5177682;28;19940;-59
2021/08/02 11:08:12;;;;;;;;;;;24.20;72.10;;;;;;5175228;28;20411;-60
2021/08/02 11:10:45;;;;;;;;;;;24.10;72.00;;;;;;5174614;28;19932;-61
2021/08/02 11:13:31;;;;;;;;;;;24.10;72.10;;;;;;5172513;28;19934;-61
2021/08/02 11:16:05;;;;;;;;;;;24.20;72.10;;;;;;5173580;28;19925;-59
2021/08/02 11:18:41;;;;;;;;;;;24.10;72.10;;;;;;5174532;28;19929;-61
2021/08/02 11:21:24;;;;;;;;;;;24.10;72.10;;;;;;5175475;28;19933;-59
2021/08/02 11:23:56;;;;;;;;;;;24.10;72.10;;;;;;5175203;28;19975;-60
2021/08/02 11:26:28;;;;;;;;;;;24.10;72.10;;;;;;5173246;28;19929;-63
2021/08/02 11:29:01;;;;;;;;;;;24.10;72.10;;;;;;5174413;28;20294;-62
2021/08/02 11:31:33;;;;;;;;;;;24.10;72.10;;;;;;5176673;28;20504;-60
2021/08/02 11:34:06;;;;;;;;;;;24.10;72.10;;;;;;5178941;28;20364;-60
2021/08/02 11:36:39;;;;;;;;;;;24.10;72.10;;;;;;5177157;28;20424;-60
2021/08/02 11:39:16;;;;;;;;;;;24.10;72.00;;;;;;5181091;28;19926;-60
2021/08/02 11:41:57;;;;;;;;;;;24.20;72.00;;;;;;5178026;28;19936;-60
2021/08/02 11:44:30;;;;;;;;;;;24.20;72.00;;;;;;5178064;28;19930;-60
2021/08/02 11:47:03;;;;;;;;;;;24.20;72.00;;;;;;5176908;28;19936;-62
2021/08/02 11:49:38;;;;;;;;;;;24.20;71.90;;;;;;5183398;28;19930;-58
2021/08/02 11:52:14;;;;;;;;;;;24.20;71.90;;;;;;5183693;28;19957;-58
2021/08/02 11:54:57;;;;;;;;;;;24.20;71.90;;;;;;5179593;28;19934;-58
2021/08/02 11:57:30;;;;;;;;;;;24.20;71.80;;;;;;5177586;28;19930;-62
2021/08/02 12:00:05;;;;;;;;;;;24.20;71.90;;;;;;5179727;28;19933;-60
2021/08/02 12:02:48;;;;;;;;;;;24.30;71.80;;;;;;5178582;28;19933;-60
2021/08/02 12:05:27;;;;;;;;;;;24.30;71.80;;;;;;5181477;28;20444;-61
2021/08/02 12:08:15;;;;;;;;;;;24.30;71.80;;;;;;5190850;28;19933;-62
2021/08/02 12:10:59;;;;;;;;;;;24.30;71.80;;;;;;5171096;28;19929;-61
2021/08/02 12:13:47;;;;;;;;;;;24.30;71.80;;;;;;5177550;28;19940;-60
2021/08/02 12:16:30;;;;;;;;;;;24.30;72.40;;;;;;5176826;28;19933;-61
2021/08/02 12:19:03;;;;;;;;;;;24.30;71.70;;;;;;5181763;28;20000;-63
2021/08/02 12:21:36;;;;;;;;;;;24.30;71.70;;;;;;5183521;28;19955;-62
2021/08/02 12:24:10;;;;;;;;;;;24.30;71.70;;;;;;5182066;28;20321;-62
2021/08/02 12:26:52;;;;;;;;;;;24.30;71.70;;;;;;5184360;28;20189;-59
2021/08/02 12:29:28;;;;;;;;;;;24.30;71.70;;;;;;5167073;28;19933;-63
2021/08/02 12:32:01;;;;;;;;;;;24.30;71.60;;;;;;5185089;28;19933;-63
2021/08/02 12:34:34;;;;;;;;;;;24.30;72.20;;;;;;5182211;28;19929;-61
2021/08/02 12:37:07;;;;;;;;;;;24.40;71.70;;;;;;5179235;28;19925;-61
2021/08/02 12:39:42;;;;;;;;;;;24.40;71.60;;;;;;5187858;28;19944;-63
2021/08/02 12:42:14;;;;;;;;;;;24.40;71.60;;;;;;5180961;28;19936;-60
2021/08/02 12:44:47;;;;;;;;;;;24.40;71.60;;;;;;5181596;28;19933;-61
2021/08/02 12:47:40;;;;;;;;;;;24.40;71.50;;;;;;5183530;28;19940;-61
2021/08/02 12:50:13;;;;;;;;;;;24.40;71.50;;;;;;5182814;28;20334;-61
2021/08/02 12:52:46;;;;;;;;;;;24.40;71.50;;;;;;5184295;28;19932;-60
2021/08/02 12:55:18;;;;;;;;;;;24.40;71.50;;;;;;5180778;28;22032;-63
2021/08/02 12:57:50;;;;;;;;;;;24.40;71.40;;;;;;5185339;28;19929;-62
2021/08/02 13:00:22;;;;;;;;;;;24.40;71.50;;;;;;5181675;28;19940;-61
2021/08/02 13:02:55;;;;;;;;;;;24.40;71.40;;;;;;5186800;28;19925;-61
2021/08/02 13:05:27;;;;;;;;;;;24.40;71.40;;;;;;5180214;28;19944;-63
2021/08/02 13:07:59;;;;;;;;;;;24.50;71.40;;;;;;5184350;28;19933;-62
2021/08/02 13:10:32;;;;;;;;;;;24.50;71.40;;;;;;5181200;28;19933;-61
2021/08/02 13:13:04;;;;;;;;;;;24.50;71.40;;;;;;5181772;28;19937;-62
2021/08/02 13:15:52;;;;;;;;;;;24.50;71.30;;;;;;5181096;28;19929;-59
2021/08/02 13:18:27;;;;;;;;;;;24.50;71.30;;;;;;5171244;28;19944;-61
2021/08/02 13:20:59;;;;;;;;;;;24.50;71.30;;;;;;5181872;28;19940;-61
2021/08/02 13:23:35;;;;;;;;;;;24.50;71.30;;;;;;5182354;28;20298;-61
2021/08/02 13:28:59;;;;;;;;;;;24.50;71.30;;;;;;5186422;28;19929;-61
2021/08/02 13:31:31;;;;;;;;;;;24.50;71.30;;;;;;5188960;28;19937;-60
2021/08/02 13:34:03;;;;;;;;;;;24.50;71.30;;;;;;5189890;28;19932;-63
2021/08/02 13:36:35;;;;;;;;;;;24.50;71.30;;;;;;5187109;28;19929;-59
2021/08/02 13:39:09;;;;;;;;;;;24.50;71.30;;;;;;5187018;28;20393;-61
2021/08/02 13:41:41;;;;;;;;;;;24.50;71.20;;;;;;5192818;22;19929;-72
2021/08/02 13:44:13;;;;;;;;;;;24.50;71.20;;;;;;5171149;28;19932;-72
2021/08/02 13:46:46;;;;;;;;;;;24.50;71.20;;;;;;5171483;28;19929;-72
2021/08/02 13:49:22;;;;;;;;;;;24.50;71.20;;;;;;5156121;28;20152;-72
2021/08/02 13:51:54;;;;;;;;;;;24.50;71.20;;;;;;5168996;28;19934;-72
2021/08/02 13:54:27;;;;;;;;;;;24.50;71.20;;;;;;5170395;28;19930;-72
2021/08/02 13:56:59;;;;;;;;;;;24.50;71.20;;;;;;5165948;28;19933;-72
2021/08/02 13:59:35;;;;;;;;;;;24.50;71.20;;;;;;4475429;28;10000414;-72
2021/08/02 14:02:08;;;;;;;;;;;24.50;71.20;;;;;;5169010;28;19926;-72
2021/08/02 14:04:40;;;;;;;;;;;24.50;71.20;;;;;;5167792;28;20321;-72
2021/08/02 14:07:12;;;;;;;;;;;24.50;71.20;;;;;;5167149;28;20602;-72
2021/08/02 14:09:44;;;;;;;;;;;24.50;71.30;;;;;;5165662;28;19941;-72
2021/08/02 14:12:19;;;;;;;;;;;24.50;71.20;;;;;;5169296;28;19934;-72
2021/08/02 14:14:53;;;;;;;;;;;24.50;71.20;;;;;;5166563;28;19936;-72
2021/08/02 14:17:29;;;;;;;;;;;24.50;71.20;;;;;;5166726;28;19926;-72
2021/08/02 14:20:01;;;;;;;;;;;24.50;71.30;;;;;;5164163;28;19936;-72
2021/08/02 14:22:33;;;;;;;;;;;24.50;71.30;;;;;;5158560;28;20036;-72
2021/08/02 14:25:06;;;;;;;;;;;24.50;71.20;;;;;;4821081;28;10000266;-73
2021/08/02 14:27:38;;;;;;;;;;;24.50;71.20;;;;;;5159914;28;19937;-72
2021/08/02 14:30:11;;;;;;;;;;;24.50;71.20;;;;;;5155664;28;20344;-73
2021/08/02 14:32:43;;;;;;;;;;;24.50;71.20;;;;;;5161265;28;20393;-73
2021/08/02 14:35:16;;;;;;;;;;;24.50;71.20;;;;;;5149841;28;19937;-73
2021/08/02 14:37:49;;;;;;;;;;;24.50;71.20;;;;;;5152538;28;19930;-72
2021/08/02 14:40:22;;;;;;;;;;;24.50;71.20;;;;;;5153651;28;19944;-72
2021/08/02 14:42:57;;;;;;;;;;;24.50;71.30;;;;;;5157243;28;19930;-72
2021/08/02 14:45:35;;;;;;;;;;;24.50;71.30;;;;;;5152726;28;19929;-73
2021/08/02 14:48:08;;;;;;;;;;;24.50;71.20;;;;;;5155697;28;20490;-73
2021/08/02 14:50:48;;;;;;;;;;;24.50;71.20;;;;;;5151669;28;19940;-72
2021/08/02 14:53:21;;;;;;;;;;;24.50;71.30;;;;;;5158180;28;20957;-72
2021/08/02 14:55:56;;;;;;;;;;;24.50;71.30;;;;;;5153508;28;19958;-72
2021/08/02 14:58:29;;;;;;;;;;;24.50;71.30;;;;;;5154046;28;20646;-72
2021/08/02 15:01:01;;;;;;;;;;;24.50;71.30;;;;;;5156015;28;19930;-72